Test XHTML 1.0 Strict Page for WU-History Testing
Histórico de la Estación METEOCORUÑA
Diario Datos del Junio 14, 2018 Unidades:  Ambos    Inglés   Metrico
« Prev Dia
Sig Dia »
Diario Semanal Mensual Anual Rango
  Max: Min: Media:
Temp: TemperatureC °F /  -17.8 °C 13.9 °F /  -10.1 °C 16.1 °F /  -8.8 °C
Rocío: DewpointC °F /  -17.8 °C 11.3 °F /  -11.5 °C 13.2 °F /  -10.4 °C
Humedad: Humidity % 69 % 83 %
Vel. viento: WindSpeedKMH mph /  0 km/h - 4.5 mph /  7.2 km/h
Racha: WindSpeedGustKMH mph /  0 km/h - -
Viento:- - West
Presión: PressurehPa in /  0 hPa 1019.7 in /  34527 hPa -
Lluvia: 0.0 in /  0 mm    
Historical Graphs
 
 
Busqueda de Junio 14, 2018
Hora Temp Rocío Presión Viento Vel. viento Racha Humedad Ratio lluvia (/hora) Radiación
TemperatureC °F /  -17.8 °C DewpointC °F /  -17.8 °C PressurehPa in /  0 hPa Calm     Humidity % HourlyPrecipMM in /  0 mm SolarRadiationWatts/m^2 W/m2
00:04 14.6 °F /  -9.7 °C 13.0 °F /  -10.6 °C 1022.8 in /  34632 hPa NW 4.8 mph /  7.7 km/h 9.7 mph /  15.6 km/h 90 % 0.0 in /  0 mm 0.00 W/m2
00:09 14.6 °F /  -9.7 °C 13.0 °F /  -10.6 °C 1022.7 in /  34628.6 hPa NW 4.8 mph /  7.7 km/h 12.9 mph /  20.8 km/h 90 % 0.0 in /  0 mm 0.00 W/m2
00:14 14.6 °F /  -9.7 °C 13.0 °F /  -10.6 °C 1022.7 in /  34628.6 hPa WNW 3.2 mph /  5.1 km/h 6.4 mph /  10.3 km/h 90 % 0.0 in /  0 mm 0.00 W/m2
00:19 14.6 °F /  -9.7 °C 13.0 °F /  -10.6 °C 1022.6 in /  34625.2 hPa NW 3.2 mph /  5.1 km/h 12.9 mph /  20.8 km/h 90 % 0.0 in /  0 mm 0.00 W/m2
00:24 14.5 °F /  -9.7 °C 12.9 °F /  -10.6 °C 1022.7 in /  34628.6 hPa NW 3.2 mph /  5.1 km/h 9.7 mph /  15.6 km/h 90 % 0.0 in /  0 mm 0.00 W/m2
00:29 14.5 °F /  -9.7 °C 12.9 °F /  -10.6 °C 1022.6 in /  34625.2 hPa NW 4.8 mph /  7.7 km/h 8.0 mph /  12.9 km/h 90 % 0.0 in /  0 mm 0.00 W/m2
00:34 14.5 °F /  -9.7 °C 12.9 °F /  -10.6 °C 1022.6 in /  34625.2 hPa NW 4.8 mph /  7.7 km/h 9.7 mph /  15.6 km/h 90 % 0.0 in /  0 mm 0.00 W/m2
00:39 14.5 °F /  -9.7 °C 12.9 °F /  -10.6 °C 1022.7 in /  34628.6 hPa NNW 4.8 mph /  7.7 km/h 9.7 mph /  15.6 km/h 90 % 0.0 in /  0 mm 0.00 W/m2
00:44 14.5 °F /  -9.7 °C 12.9 °F /  -10.6 °C 1022.6 in /  34625.2 hPa NNW 3.2 mph /  5.1 km/h 8.0 mph /  12.9 km/h 90 % 0.0 in /  0 mm 0.00 W/m2
00:49 14.6 °F /  -9.7 °C 13.0 °F /  -10.6 °C 1022.6 in /  34625.2 hPa NNW 3.2 mph /  5.1 km/h 9.7 mph /  15.6 km/h 90 % 0.0 in /  0 mm 0.00 W/m2
00:54 14.5 °F /  -9.7 °C 12.9 °F /  -10.6 °C 1022.6 in /  34625.2 hPa NW 3.2 mph /  5.1 km/h 11.3 mph /  18.2 km/h 90 % 0.0 in /  0 mm 0.00 W/m2
00:59 14.6 °F /  -9.7 °C 13.0 °F /  -10.6 °C 1022.6 in /  34625.2 hPa NNW 3.2 mph /  5.1 km/h 6.4 mph /  10.3 km/h 90 % 0.0 in /  0 mm 0.00 W/m2
01:04 14.6 °F /  -9.7 °C 13.0 °F /  -10.6 °C 1022.6 in /  34625.2 hPa West 3.2 mph /  5.1 km/h 6.4 mph /  10.3 km/h 90 % 0.0 in /  0 mm 0.00 W/m2
01:09 14.5 °F /  -9.7 °C 12.9 °F /  -10.6 °C 1022.5 in /  34621.9 hPa WNW 3.2 mph /  5.1 km/h 11.3 mph /  18.2 km/h 90 % 0.0 in /  0 mm 0.00 W/m2
01:14 14.5 °F /  -9.7 °C 12.9 °F /  -10.6 °C 1022.5 in /  34621.9 hPa WNW 3.2 mph /  5.1 km/h 8.0 mph /  12.9 km/h 90 % 0.0 in /  0 mm 0.00 W/m2
01:19 14.5 °F /  -9.7 °C 12.9 °F /  -10.6 °C 1022.5 in /  34621.9 hPa WNW 4.8 mph /  7.7 km/h 9.7 mph /  15.6 km/h 90 % 0.0 in /  0 mm 0.00 W/m2
01:24 14.4 °F /  -9.8 °C 12.8 °F /  -10.7 °C 1022.5 in /  34621.9 hPa West 3.2 mph /  5.1 km/h 8.0 mph /  12.9 km/h 90 % 0.0 in /  0 mm 0.00 W/m2
01:29 14.4 °F /  -9.8 °C 12.8 °F /  -10.7 °C 1022.5 in /  34621.9 hPa WNW 3.2 mph /  5.1 km/h 9.7 mph /  15.6 km/h 90 % 0.0 in /  0 mm 0.00 W/m2
01:34 14.4 °F /  -9.8 °C 12.8 °F /  -10.7 °C 1022.5 in /  34621.9 hPa WNW 4.8 mph /  7.7 km/h 11.3 mph /  18.2 km/h 90 % 0.0 in /  0 mm 0.00 W/m2
01:39 14.4 °F /  -9.8 °C 12.8 °F /  -10.7 °C 1022.5 in /  34621.9 hPa NW 4.8 mph /  7.7 km/h 9.7 mph /  15.6 km/h 90 % 0.0 in /  0 mm 0.00 W/m2
01:44 14.3 °F /  -9.8 °C 12.7 °F /  -10.7 °C 1022.5 in /  34621.9 hPa WNW 6.4 mph /  10.3 km/h 16.1 mph /  25.9 km/h 90 % 0.0 in /  0 mm 0.00 W/m2
01:49 14.4 °F /  -9.8 °C 12.8 °F /  -10.7 °C 1022.4 in /  34618.5 hPa NW 6.4 mph /  10.3 km/h 14.5 mph /  23.3 km/h 90 % 0.0 in /  0 mm 0.00 W/m2
01:54 14.3 °F /  -9.8 °C 12.7 °F /  -10.7 °C 1022.3 in /  34615.1 hPa WNW 4.8 mph /  7.7 km/h 8.0 mph /  12.9 km/h 90 % 0.0 in /  0 mm 0.00 W/m2
01:58 14.3 °F /  -9.8 °C 12.7 °F /  -10.7 °C 1022.3 in /  34615.1 hPa West 4.8 mph /  7.7 km/h 11.3 mph /  18.2 km/h 90 % 0.0 in /  0 mm 0.00 W/m2
02:09 14.3 °F /  -9.8 °C 12.7 °F /  -10.7 °C 1022.3 in /  34615.1 hPa WNW 4.8 mph /  7.7 km/h 11.3 mph /  18.2 km/h 90 % 0.0 in /  0 mm 0.00 W/m2
02:14 14.3 °F /  -9.8 °C 12.7 °F /  -10.7 °C 1022.3 in /  34615.1 hPa NW 4.8 mph /  7.7 km/h 11.3 mph /  18.2 km/h 90 % 0.0 in /  0 mm 0.00 W/m2
02:19 14.3 °F /  -9.8 °C 12.7 °F /  -10.7 °C 1022.3 in /  34615.1 hPa WNW 6.4 mph /  10.3 km/h 14.5 mph /  23.3 km/h 90 % 0.0 in /  0 mm 0.00 W/m2
02:24 14.3 °F /  -9.8 °C 12.7 °F /  -10.7 °C 1022.3 in /  34615.1 hPa WNW 6.4 mph /  10.3 km/h 11.3 mph /  18.2 km/h 90 % 0.0 in /  0 mm 0.00 W/m2
02:29 14.3 °F /  -9.8 °C 12.7 °F /  -10.7 °C 1022.2 in /  34611.7 hPa WNW 4.8 mph /  7.7 km/h 8.0 mph /  12.9 km/h 90 % 0.0 in /  0 mm 0.00 W/m2
02:34 14.3 °F /  -9.8 °C 12.7 °F /  -10.7 °C 1022.1 in /  34608.3 hPa WNW 4.8 mph /  7.7 km/h 9.7 mph /  15.6 km/h 90 % 0.0 in /  0 mm 0.00 W/m2
02:39 14.3 °F /  -9.8 °C 12.7 °F /  -10.7 °C 1022.0 in /  34604.9 hPa WNW 3.2 mph /  5.1 km/h 6.4 mph /  10.3 km/h 90 % 0.0 in /  0 mm 0.00 W/m2
02:44 14.3 °F /  -9.8 °C 12.7 °F /  -10.7 °C 1022.0 in /  34604.9 hPa NW 3.2 mph /  5.1 km/h 3.2 mph /  5.1 km/h 90 % 0.0 in /  0 mm 0.00 W/m2
02:49 14.3 °F /  -9.8 °C 12.7 °F /  -10.7 °C 1021.9 in /  34601.5 hPa NW 1.6 mph /  2.6 km/h 8.0 mph /  12.9 km/h 90 % 0.0 in /  0 mm 0.00 W/m2
02:54 14.3 °F /  -9.8 °C 12.5 °F /  -10.8 °C 1021.9 in /  34601.5 hPa NW 3.2 mph /  5.1 km/h 11.3 mph /  18.2 km/h 89 % 0.0 in /  0 mm 0.00 W/m2
02:59 14.3 °F /  -9.8 °C 12.5 °F /  -10.8 °C 1022.0 in /  34604.9 hPa WNW 3.2 mph /  5.1 km/h 4.8 mph /  7.7 km/h 89 % 0.0 in /  0 mm 0.00 W/m2
03:04 14.4 °F /  -9.8 °C 12.6 °F /  -10.8 °C 1021.9 in /  34601.5 hPa WNW 3.2 mph /  5.1 km/h 6.4 mph /  10.3 km/h 89 % 0.0 in /  0 mm 0.00 W/m2
03:09 14.4 °F /  -9.8 °C 12.6 °F /  -10.8 °C 1021.9 in /  34601.5 hPa NW 3.2 mph /  5.1 km/h 6.4 mph /  10.3 km/h 89 % 0.0 in /  0 mm 0.00 W/m2
03:14 14.4 °F /  -9.8 °C 12.6 °F /  -10.8 °C 1021.8 in /  34598.1 hPa West 3.2 mph /  5.1 km/h 8.0 mph /  12.9 km/h 89 % 0.0 in /  0 mm 0.00 W/m2
03:19 14.4 °F /  -9.8 °C 12.6 °F /  -10.8 °C 1021.8 in /  34598.1 hPa West 3.2 mph /  5.1 km/h 8.0 mph /  12.9 km/h 89 % 0.0 in /  0 mm 0.00 W/m2
03:24 14.4 °F /  -9.8 °C 12.6 °F /  -10.8 °C 1021.7 in /  34594.8 hPa WNW 3.2 mph /  5.1 km/h 9.7 mph /  15.6 km/h 89 % 0.0 in /  0 mm 0.00 W/m2
03:29 14.4 °F /  -9.8 °C 12.6 °F /  -10.8 °C 1021.8 in /  34598.1 hPa WNW 3.2 mph /  5.1 km/h 6.4 mph /  10.3 km/h 89 % 0.0 in /  0 mm 0.00 W/m2
03:34 14.4 °F /  -9.8 °C 12.6 °F /  -10.8 °C 1021.7 in /  34594.8 hPa West 3.2 mph /  5.1 km/h 4.8 mph /  7.7 km/h 89 % 0.0 in /  0 mm 0.00 W/m2
03:39 14.4 °F /  -9.8 °C 12.6 °F /  -10.8 °C 1021.6 in /  34591.4 hPa West 1.6 mph /  2.6 km/h 4.8 mph /  7.7 km/h 89 % 0.0 in /  0 mm 0.00 W/m2
03:44 14.3 °F /  -9.8 °C 12.5 °F /  -10.8 °C 1021.6 in /  34591.4 hPa West 1.6 mph /  2.6 km/h 6.4 mph /  10.3 km/h 89 % 0.0 in /  0 mm 0.00 W/m2
03:49 14.3 °F /  -9.8 °C 12.5 °F /  -10.8 °C 1021.6 in /  34591.4 hPa NW 1.6 mph /  2.6 km/h 9.7 mph /  15.6 km/h 89 % 0.0 in /  0 mm 0.00 W/m2
03:54 14.3 °F /  -9.8 °C 12.5 °F /  -10.8 °C 1021.6 in /  34591.4 hPa NW 3.2 mph /  5.1 km/h 6.4 mph /  10.3 km/h 89 % 0.0 in /  0 mm 0.00 W/m2
03:59 14.3 °F /  -9.8 °C 12.5 °F /  -10.8 °C 1021.7 in /  34594.8 hPa NW 1.6 mph /  2.6 km/h 4.8 mph /  7.7 km/h 89 % 0.0 in /  0 mm 0.00 W/m2
04:04 14.3 °F /  -9.8 °C 12.5 °F /  -10.8 °C 1021.6 in /  34591.4 hPa WNW 1.6 mph /  2.6 km/h 8.0 mph /  12.9 km/h 89 % 0.0 in /  0 mm 0.00 W/m2
04:09 14.3 °F /  -9.8 °C 12.5 °F /  -10.8 °C 1021.6 in /  34591.4 hPa West 1.6 mph /  2.6 km/h 8.0 mph /  12.9 km/h 89 % 0.0 in /  0 mm 0.00 W/m2
04:14 14.2 °F /  -9.9 °C 12.2 °F /  -11 °C 1021.5 in /  34588 hPa WNW 1.6 mph /  2.6 km/h 11.3 mph /  18.2 km/h 88 % 0.0 in /  0 mm 0.00 W/m2
04:19 14.3 °F /  -9.8 °C 12.3 °F /  -10.9 °C 1021.4 in /  34584.6 hPa WNW 3.2 mph /  5.1 km/h 9.7 mph /  15.6 km/h 88 % 0.0 in /  0 mm 0.00 W/m2
04:24 14.3 °F /  -9.8 °C 12.3 °F /  -10.9 °C 1021.4 in /  34584.6 hPa WNW 4.8 mph /  7.7 km/h 8.0 mph /  12.9 km/h 88 % 0.0 in /  0 mm 0.00 W/m2
04:29 14.2 °F /  -9.9 °C 12.2 °F /  -11 °C 1021.3 in /  34581.2 hPa WNW 3.2 mph /  5.1 km/h 8.0 mph /  12.9 km/h 88 % 0.0 in /  0 mm 0.00 W/m2
04:34 14.3 °F /  -9.8 °C 12.3 °F /  -10.9 °C 1021.4 in /  34584.6 hPa West 3.2 mph /  5.1 km/h 8.0 mph /  12.9 km/h 88 % 0.0 in /  0 mm 0.00 W/m2
04:39 14.3 °F /  -9.8 °C 12.3 °F /  -10.9 °C 1021.3 in /  34581.2 hPa NW 3.2 mph /  5.1 km/h 9.7 mph /  15.6 km/h 88 % 0.0 in /  0 mm 0.00 W/m2
04:44 14.3 °F /  -9.8 °C 12.3 °F /  -10.9 °C 1021.3 in /  34581.2 hPa WNW 4.8 mph /  7.7 km/h 11.3 mph /  18.2 km/h 88 % 0.0 in /  0 mm 0.00 W/m2
04:49 14.2 °F /  -9.9 °C 12.2 °F /  -11 °C 1021.2 in /  34577.8 hPa WNW 4.8 mph /  7.7 km/h 12.9 mph /  20.8 km/h 88 % 0.0 in /  0 mm 0.00 W/m2
04:54 14.2 °F /  -9.9 °C 12.2 °F /  -11 °C 1021.1 in /  34574.4 hPa WNW 6.4 mph /  10.3 km/h 12.9 mph /  20.8 km/h 88 % 0.0 in /  0 mm 0.00 W/m2
04:59 14.2 °F /  -9.9 °C 12.2 °F /  -11 °C 1021.0 in /  34571.1 hPa WNW 6.4 mph /  10.3 km/h 8.0 mph /  12.9 km/h 88 % 0.0 in /  0 mm 0.00 W/m2
05:04 14.2 °F /  -9.9 °C 12.2 °F /  -11 °C 1020.9 in /  34567.7 hPa WNW 4.8 mph /  7.7 km/h 6.4 mph /  10.3 km/h 88 % 0.0 in /  0 mm 0.00 W/m2
05:09 14.1 °F /  -9.9 °C 12.2 °F /  -11 °C 1020.9 in /  34567.7 hPa WNW 4.8 mph /  7.7 km/h 9.7 mph /  15.6 km/h 88 % 0.0 in /  0 mm 0.00 W/m2
05:14 14.2 °F /  -9.9 °C 12.2 °F /  -11 °C 1020.9 in /  34567.7 hPa WNW 4.8 mph /  7.7 km/h 8.0 mph /  12.9 km/h 88 % 0.0 in /  0 mm 0.00 W/m2
05:19 14.1 °F /  -9.9 °C 12.2 °F /  -11 °C 1020.9 in /  34567.7 hPa WNW 4.8 mph /  7.7 km/h 11.3 mph /  18.2 km/h 88 % 0.0 in /  0 mm 0.00 W/m2
05:24 14.1 °F /  -9.9 °C 11.9 °F /  -11.2 °C 1020.8 in /  34564.3 hPa WNW 4.8 mph /  7.7 km/h 9.7 mph /  15.6 km/h 87 % 0.0 in /  0 mm 0.00 W/m2
05:29 14.1 °F /  -9.9 °C 11.9 °F /  -11.2 °C 1020.7 in /  34560.9 hPa WNW 6.4 mph /  10.3 km/h 9.7 mph /  15.6 km/h 87 % 0.0 in /  0 mm 0.00 W/m2
05:34 14.1 °F /  -9.9 °C 11.9 °F /  -11.2 °C 1020.7 in /  34560.9 hPa WNW 6.4 mph /  10.3 km/h 9.7 mph /  15.6 km/h 87 % 0.0 in /  0 mm 0.00 W/m2
05:39 14.2 °F /  -9.9 °C 12.1 °F /  -11.1 °C 1020.6 in /  34557.5 hPa WNW 4.8 mph /  7.7 km/h 9.7 mph /  15.6 km/h 87 % 0.0 in /  0 mm 0.00 W/m2
05:44 14.2 °F /  -9.9 °C 12.1 °F /  -11.1 °C 1020.7 in /  34560.9 hPa NW 4.8 mph /  7.7 km/h 8.0 mph /  12.9 km/h 87 % 0.0 in /  0 mm 0.00 W/m2
05:49 14.2 °F /  -9.9 °C 12.1 °F /  -11.1 °C 1020.8 in /  34564.3 hPa NW 3.2 mph /  5.1 km/h 8.0 mph /  12.9 km/h 87 % 0.0 in /  0 mm 0.00 W/m2
05:54 14.1 °F /  -9.9 °C 11.9 °F /  -11.2 °C 1020.7 in /  34560.9 hPa WNW 3.2 mph /  5.1 km/h 6.4 mph /  10.3 km/h 87 % 0.0 in /  0 mm 0.00 W/m2
05:59 14.2 °F /  -9.9 °C 12.1 °F /  -11.1 °C 1020.7 in /  34560.9 hPa WNW 4.8 mph /  7.7 km/h 8.0 mph /  12.9 km/h 87 % 0.0 in /  0 mm 0.00 W/m2
06:04 14.2 °F /  -9.9 °C 12.1 °F /  -11.1 °C 1020.7 in /  34560.9 hPa WNW 3.2 mph /  5.1 km/h 6.4 mph /  10.3 km/h 87 % 0.0 in /  0 mm 0.00 W/m2
06:09 14.2 °F /  -9.9 °C 11.9 °F /  -11.2 °C 1020.8 in /  34564.3 hPa WNW 3.2 mph /  5.1 km/h 6.4 mph /  10.3 km/h 86 % 0.0 in /  0 mm 0.00 W/m2
06:14 14.1 °F /  -9.9 °C 11.8 °F /  -11.2 °C 1020.8 in /  34564.3 hPa West 3.2 mph /  5.1 km/h 6.4 mph /  10.3 km/h 86 % 0.0 in /  0 mm 0.00 W/m2
06:19 14.1 °F /  -9.9 °C 11.8 °F /  -11.2 °C 1020.8 in /  34564.3 hPa West 1.6 mph /  2.6 km/h 6.4 mph /  10.3 km/h 86 % 0.0 in /  0 mm 0.00 W/m2
06:24 14.1 °F /  -9.9 °C 11.8 °F /  -11.2 °C 1020.8 in /  34564.3 hPa West 1.6 mph /  2.6 km/h 6.4 mph /  10.3 km/h 86 % 0.0 in /  0 mm 0.00 W/m2
06:29 14.1 °F /  -9.9 °C 11.8 °F /  -11.2 °C 1020.8 in /  34564.3 hPa West 3.2 mph /  5.1 km/h 4.8 mph /  7.7 km/h 86 % 0.0 in /  0 mm 0.00 W/m2
06:34 14.1 °F /  -9.9 °C 11.8 °F /  -11.2 °C 1020.7 in /  34560.9 hPa West 3.2 mph /  5.1 km/h 6.4 mph /  10.3 km/h 86 % 0.0 in /  0 mm 0.00 W/m2
06:39 14.1 °F /  -9.9 °C 11.6 °F /  -11.3 °C 1020.8 in /  34564.3 hPa West 1.6 mph /  2.6 km/h 3.2 mph /  5.1 km/h 85 % 0.0 in /  0 mm 0.00 W/m2
06:44 14.1 °F /  -9.9 °C 11.6 °F /  -11.3 °C 1020.8 in /  34564.3 hPa West 1.6 mph /  2.6 km/h 3.2 mph /  5.1 km/h 85 % 0.0 in /  0 mm 5.00 W/m2
06:49 14.1 °F /  -9.9 °C 11.6 °F /  -11.3 °C 1020.7 in /  34560.9 hPa Calm   4.8 mph /  7.7 km/h 85 % 0.0 in /  0 mm 5.00 W/m2
06:54 14.1 °F /  -9.9 °C 11.4 °F /  -11.4 °C 1020.7 in /  34560.9 hPa West 1.6 mph /  2.6 km/h 1.6 mph /  2.6 km/h 84 % 0.0 in /  0 mm 7.00 W/m2
06:59 14.0 °F /  -10 °C 11.3 °F /  -11.5 °C 1020.7 in /  34560.9 hPa Calm   1.6 mph /  2.6 km/h 84 % 0.0 in /  0 mm 9.00 W/m2
07:04 14.0 °F /  -10 °C 11.3 °F /  -11.5 °C 1020.7 in /  34560.9 hPa Calm   1.6 mph /  2.6 km/h 84 % 0.0 in /  0 mm 12.00 W/m2
07:09 13.9 °F /  -10.1 °C 11.4 °F /  -11.4 °C 1020.8 in /  34564.3 hPa Calm   3.2 mph /  5.1 km/h 85 % 0.0 in /  0 mm 16.00 W/m2
07:14 13.9 °F /  -10.1 °C 11.4 °F /  -11.4 °C 1020.8 in /  34564.3 hPa Calm   3.2 mph /  5.1 km/h 85 % 0.0 in /  0 mm 21.00 W/m2
07:19 13.9 °F /  -10.1 °C 11.4 °F /  -11.4 °C 1020.8 in /  34564.3 hPa Calm   3.2 mph /  5.1 km/h 85 % 0.0 in /  0 mm 26.00 W/m2
07:24 14.0 °F /  -10 °C 11.5 °F /  -11.4 °C 1020.8 in /  34564.3 hPa Calm   3.2 mph /  5.1 km/h 85 % 0.0 in /  0 mm 30.00 W/m2
07:29 14.1 °F /  -9.9 °C 11.4 °F /  -11.4 °C 1020.7 in /  34560.9 hPa West 1.6 mph /  2.6 km/h 3.2 mph /  5.1 km/h 84 % 0.0 in /  0 mm 33.00 W/m2
07:34 14.2 °F /  -9.9 °C 11.6 °F /  -11.3 °C 1020.8 in /  34564.3 hPa Calm   1.6 mph /  2.6 km/h 84 % 0.0 in /  0 mm 33.00 W/m2
07:39 14.2 °F /  -9.9 °C 11.6 °F /  -11.3 °C 1020.8 in /  34564.3 hPa Calm   1.6 mph /  2.6 km/h 84 % 0.0 in /  0 mm 32.00 W/m2
07:44 14.3 °F /  -9.8 °C 11.6 °F /  -11.3 °C 1020.8 in /  34564.3 hPa Calm   3.2 mph /  5.1 km/h 84 % 0.0 in /  0 mm 32.00 W/m2
07:49 14.2 °F /  -9.9 °C 11.3 °F /  -11.5 °C 1020.8 in /  34564.3 hPa Calm   1.6 mph /  2.6 km/h 83 % 0.0 in /  0 mm 32.00 W/m2
07:54 14.2 °F /  -9.9 °C 11.3 °F /  -11.5 °C 1020.9 in /  34567.7 hPa Calm   1.6 mph /  2.6 km/h 83 % 0.0 in /  0 mm 35.00 W/m2
07:59 14.3 °F /  -9.8 °C 11.6 °F /  -11.3 °C 1020.9 in /  34567.7 hPa Calm   1.6 mph /  2.6 km/h 84 % 0.0 in /  0 mm 37.00 W/m2
08:04 14.4 °F /  -9.8 °C 11.6 °F /  -11.3 °C 1020.9 in /  34567.7 hPa Calm   3.2 mph /  5.1 km/h 83 % 0.0 in /  0 mm 39.00 W/m2
08:09 14.6 °F /  -9.7 °C 11.9 °F /  -11.2 °C 1020.9 in /  34567.7 hPa Calm   1.6 mph /  2.6 km/h 84 % 0.0 in /  0 mm 39.00 W/m2
08:14 14.8 °F /  -9.6 °C 11.9 °F /  -11.2 °C 1021.0 in /  34571.1 hPa Calm   1.6 mph /  2.6 km/h 83 % 0.0 in /  0 mm 40.00 W/m2
08:19 15.1 °F /  -9.4 °C 12.2 °F /  -11 °C 1021.0 in /  34571.1 hPa Calm   3.2 mph /  5.1 km/h 83 % 0.0 in /  0 mm 40.00 W/m2
08:24 15.1 °F /  -9.4 °C 12.1 °F /  -11.1 °C 1021.0 in /  34571.1 hPa Calm   1.6 mph /  2.6 km/h 82 % 0.0 in /  0 mm 44.00 W/m2
08:29 15.3 °F /  -9.3 °C 12.2 °F /  -11 °C 1021.0 in /  34571.1 hPa Calm   1.6 mph /  2.6 km/h 82 % 0.0 in /  0 mm 47.00 W/m2
08:34 15.2 °F /  -9.3 °C 11.9 °F /  -11.2 °C 1021.0 in /  34571.1 hPa West 1.6 mph /  2.6 km/h 4.8 mph /  7.7 km/h 81 % 0.0 in /  0 mm 62.00 W/m2
08:39 15.3 °F /  -9.3 °C 12.1 °F /  -11.1 °C 1021.1 in /  34574.4 hPa West 1.6 mph /  2.6 km/h 6.4 mph /  10.3 km/h 81 % 0.0 in /  0 mm 137.00 W/m2
08:44 15.2 °F /  -9.3 °C 11.9 °F /  -11.2 °C 1021.1 in /  34574.4 hPa West 1.6 mph /  2.6 km/h 6.4 mph /  10.3 km/h 81 % 0.0 in /  0 mm 135.00 W/m2
08:49 15.1 °F /  -9.4 °C 11.9 °F /  -11.2 °C 1021.1 in /  34574.4 hPa West 3.2 mph /  5.1 km/h 4.8 mph /  7.7 km/h 81 % 0.0 in /  0 mm 141.00 W/m2
08:54 15.2 °F /  -9.3 °C 11.9 °F /  -11.2 °C 1021.1 in /  34574.4 hPa West 1.6 mph /  2.6 km/h 1.6 mph /  2.6 km/h 81 % 0.0 in /  0 mm 156.00 W/m2
08:59 15.3 °F /  -9.3 °C 12.1 °F /  -11.1 °C 1021.1 in /  34574.4 hPa Calm   3.2 mph /  5.1 km/h 81 % 0.0 in /  0 mm 163.00 W/m2
09:04 15.8 °F /  -9 °C 12.7 °F /  -10.7 °C 1021.2 in /  34577.8 hPa Calm     82 % 0.0 in /  0 mm 199.00 W/m2
09:09 16.2 °F /  -8.8 °C 12.9 °F /  -10.6 °C 1021.1 in /  34574.4 hPa Calm   1.6 mph /  2.6 km/h 81 % 0.0 in /  0 mm 193.00 W/m2
09:14 16.4 °F /  -8.7 °C 12.9 °F /  -10.6 °C 1021.1 in /  34574.4 hPa Calm   1.6 mph /  2.6 km/h 80 % 0.0 in /  0 mm 220.00 W/m2
09:19 16.4 °F /  -8.7 °C 12.7 °F /  -10.7 °C 1021.1 in /  34574.4 hPa Calm   3.2 mph /  5.1 km/h 79 % 0.0 in /  0 mm 274.00 W/m2
09:24 16.2 °F /  -8.8 °C 12.6 °F /  -10.8 °C 1021.1 in /  34574.4 hPa Calm   3.2 mph /  5.1 km/h 79 % 0.0 in /  0 mm 241.00 W/m2
09:29 16.3 °F /  -8.7 °C 12.8 °F /  -10.7 °C 1021.1 in /  34574.4 hPa West 1.6 mph /  2.6 km/h 3.2 mph /  5.1 km/h 80 % 0.0 in /  0 mm 404.00 W/m2
09:34 16.5 °F /  -8.6 °C 12.8 °F /  -10.7 °C 1021.0 in /  34571.1 hPa West 1.6 mph /  2.6 km/h 1.6 mph /  2.6 km/h 79 % 0.0 in /  0 mm 403.00 W/m2
09:39 16.7 °F /  -8.5 °C 12.8 °F /  -10.7 °C 1021.1 in /  34574.4 hPa Calm   3.2 mph /  5.1 km/h 78 % 0.0 in /  0 mm 411.00 W/m2
09:44 16.9 °F /  -8.4 °C 12.8 °F /  -10.7 °C 1021.1 in /  34574.4 hPa Calm   4.8 mph /  7.7 km/h 77 % 0.0 in /  0 mm 366.00 W/m2
09:49 17.2 °F /  -8.2 °C 13.1 °F /  -10.5 °C 1021.2 in /  34577.8 hPa NNW 1.6 mph /  2.6 km/h 3.2 mph /  5.1 km/h 77 % 0.0 in /  0 mm 439.00 W/m2
09:54 16.9 °F /  -8.4 °C 12.4 °F /  -10.9 °C 1021.0 in /  34571.1 hPa NE 1.6 mph /  2.6 km/h 6.4 mph /  10.3 km/h 75 % 0.0 in /  0 mm 450.00 W/m2
09:59 16.9 °F /  -8.4 °C 12.8 °F /  -10.7 °C 1021.0 in /  34571.1 hPa ENE 1.6 mph /  2.6 km/h 8.0 mph /  12.9 km/h 77 % 0.0 in /  0 mm 462.00 W/m2
10:04 17.1 °F /  -8.3 °C 12.8 °F /  -10.7 °C 1021.0 in /  34571.1 hPa ENE 3.2 mph /  5.1 km/h 4.8 mph /  7.7 km/h 76 % 0.0 in /  0 mm 459.00 W/m2
10:09 17.5 °F /  -8.1 °C 13.2 °F /  -10.4 °C 1021.0 in /  34571.1 hPa ENE 1.6 mph /  2.6 km/h 3.2 mph /  5.1 km/h 76 % 0.0 in /  0 mm 459.00 W/m2
10:14 17.8 °F /  -7.9 °C 13.3 °F /  -10.4 °C 1021.0 in /  34571.1 hPa ENE 1.6 mph /  2.6 km/h 4.8 mph /  7.7 km/h 75 % 0.0 in /  0 mm 457.00 W/m2
10:19 18.2 °F /  -7.7 °C 13.5 °F /  -10.3 °C 1021.0 in /  34571.1 hPa Calm   8.0 mph /  12.9 km/h 74 % 0.0 in /  0 mm 482.00 W/m2
10:24 18.2 °F /  -7.7 °C 13.3 °F /  -10.4 °C 1021.0 in /  34571.1 hPa East 1.6 mph /  2.6 km/h 8.0 mph /  12.9 km/h 73 % 0.0 in /  0 mm 492.00 W/m2
10:29 18.2 °F /  -7.7 °C 13.3 °F /  -10.4 °C 1021.0 in /  34571.1 hPa East 1.6 mph /  2.6 km/h 8.0 mph /  12.9 km/h 73 % 0.0 in /  0 mm 522.00 W/m2
10:34 18.3 °F /  -7.6 °C 13.2 °F /  -10.4 °C 1020.9 in /  34567.7 hPa East 1.6 mph /  2.6 km/h 8.0 mph /  12.9 km/h 72 % 0.0 in /  0 mm 541.00 W/m2
10:39 17.9 °F /  -7.8 °C 12.6 °F /  -10.8 °C 1020.9 in /  34567.7 hPa ESE 3.2 mph /  5.1 km/h 8.0 mph /  12.9 km/h 71 % 0.0 in /  0 mm 559.00 W/m2
10:44 17.8 °F /  -7.9 °C 13.1 °F /  -10.5 °C 1020.9 in /  34567.7 hPa East 3.2 mph /  5.1 km/h 11.3 mph /  18.2 km/h 74 % 0.0 in /  0 mm 564.00 W/m2
10:49 17.8 °F /  -7.9 °C 12.9 °F /  -10.6 °C 1021.0 in /  34571.1 hPa East 3.2 mph /  5.1 km/h 4.8 mph /  7.7 km/h 73 % 0.0 in /  0 mm 594.00 W/m2
10:54 17.9 °F /  -7.8 °C 12.8 °F /  -10.7 °C 1021.0 in /  34571.1 hPa East 3.2 mph /  5.1 km/h 12.9 mph /  20.8 km/h 72 % 0.0 in /  0 mm 446.00 W/m2
10:59 17.7 °F /  -7.9 °C 12.8 °F /  -10.7 °C 1020.9 in /  34567.7 hPa East 3.2 mph /  5.1 km/h 11.3 mph /  18.2 km/h 73 % 0.0 in /  0 mm 601.00 W/m2
11:04 17.9 °F /  -7.8 °C 13.0 °F /  -10.6 °C 1020.9 in /  34567.7 hPa East 4.8 mph /  7.7 km/h 8.0 mph /  12.9 km/h 73 % 0.0 in /  0 mm 619.00 W/m2
11:09 18.1 °F /  -7.7 °C 12.9 °F /  -10.6 °C 1020.8 in /  34564.3 hPa East 3.2 mph /  5.1 km/h 4.8 mph /  7.7 km/h 72 % 0.0 in /  0 mm 631.00 W/m2
11:14 18.4 °F /  -7.6 °C 13.4 °F /  -10.3 °C 1020.9 in /  34567.7 hPa East 3.2 mph /  5.1 km/h 4.8 mph /  7.7 km/h 73 % 0.0 in /  0 mm 643.00 W/m2
11:19 18.8 °F /  -7.3 °C 13.7 °F /  -10.2 °C 1020.8 in /  34564.3 hPa East 1.6 mph /  2.6 km/h 4.8 mph /  7.7 km/h 72 % 0.0 in /  0 mm 656.00 W/m2
11:24 19.0 °F /  -7.2 °C 13.4 °F /  -10.3 °C 1020.7 in /  34560.9 hPa East 1.6 mph /  2.6 km/h 8.0 mph /  12.9 km/h 70 % 0.0 in /  0 mm 666.00 W/m2
11:29 19.2 °F /  -7.1 °C 13.6 °F /  -10.2 °C 1020.8 in /  34564.3 hPa SSE 1.6 mph /  2.6 km/h 6.4 mph /  10.3 km/h 70 % 0.0 in /  0 mm 675.00 W/m2
11:34 19.4 °F /  -7 °C 13.8 °F /  -10.1 °C 1020.8 in /  34564.3 hPa WSW 1.6 mph /  2.6 km/h 8.0 mph /  12.9 km/h 70 % 0.0 in /  0 mm 687.00 W/m2
11:39 19.2 °F /  -7.1 °C 13.4 °F /  -10.3 °C 1020.7 in /  34560.9 hPa West 1.6 mph /  2.6 km/h 3.2 mph /  5.1 km/h 69 % 0.0 in /  0 mm 698.00 W/m2
11:44 19.1 °F /  -7.2 °C 13.3 °F /  -10.4 °C 1020.7 in /  34560.9 hPa West 1.6 mph /  2.6 km/h 6.4 mph /  10.3 km/h 69 % 0.0 in /  0 mm 707.00 W/m2
11:49 19.1 °F /  -7.2 °C 13.5 °F /  -10.3 °C 1020.7 in /  34560.9 hPa West 1.6 mph /  2.6 km/h 6.4 mph /  10.3 km/h 70 % 0.0 in /  0 mm 717.00 W/m2
11:54 19.0 °F /  -7.2 °C 13.4 °F /  -10.3 °C 1020.8 in /  34564.3 hPa West 3.2 mph /  5.1 km/h 6.4 mph /  10.3 km/h 70 % 0.0 in /  0 mm 728.00 W/m2
11:59 19.0 °F /  -7.2 °C 13.4 °F /  -10.3 °C 1020.8 in /  34564.3 hPa West 1.6 mph /  2.6 km/h 9.7 mph /  15.6 km/h 70 % 0.0 in /  0 mm 733.00 W/m2
12:04 18.3 °F /  -7.6 °C 13.2 °F /  -10.4 °C 1020.9 in /  34567.7 hPa West 3.2 mph /  5.1 km/h 11.3 mph /  18.2 km/h 72 % 0.0 in /  0 mm 742.00 W/m2
12:09 18.0 °F /  -7.8 °C 13.3 °F /  -10.4 °C 1020.9 in /  34567.7 hPa WNW 4.8 mph /  7.7 km/h 6.4 mph /  10.3 km/h 74 % 0.0 in /  0 mm 751.00 W/m2
12:14 17.8 °F /  -7.9 °C 13.3 °F /  -10.4 °C 1020.9 in /  34567.7 hPa WNW 4.8 mph /  7.7 km/h 8.0 mph /  12.9 km/h 75 % 0.0 in /  0 mm 759.00 W/m2
12:19 17.4 °F /  -8.1 °C 12.9 °F /  -10.6 °C 1021.0 in /  34571.1 hPa West 4.8 mph /  7.7 km/h 14.5 mph /  23.3 km/h 75 % 0.0 in /  0 mm 754.00 W/m2
12:24 17.4 °F /  -8.1 °C 13.3 °F /  -10.4 °C 1021.0 in /  34571.1 hPa West 6.4 mph /  10.3 km/h 8.0 mph /  12.9 km/h 77 % 0.0 in /  0 mm 729.00 W/m2
12:29 17.4 °F /  -8.1 °C 13.3 °F /  -10.4 °C 1021.0 in /  34571.1 hPa West 4.8 mph /  7.7 km/h 8.0 mph /  12.9 km/h 77 % 0.0 in /  0 mm 694.00 W/m2
12:34 17.4 °F /  -8.1 °C 13.1 °F /  -10.5 °C 1021.0 in /  34571.1 hPa NW 4.8 mph /  7.7 km/h 9.7 mph /  15.6 km/h 76 % 0.0 in /  0 mm 657.00 W/m2
12:39 17.6 °F /  -8 °C 13.3 °F /  -10.4 °C 1021.0 in /  34571.1 hPa WNW 4.8 mph /  7.7 km/h 9.7 mph /  15.6 km/h 76 % 0.0 in /  0 mm 640.00 W/m2
12:44 17.7 °F /  -7.9 °C 13.2 °F /  -10.4 °C 1021.0 in /  34571.1 hPa WNW 4.8 mph /  7.7 km/h 8.0 mph /  12.9 km/h 75 % 0.0 in /  0 mm 649.00 W/m2
12:49 17.8 °F /  -7.9 °C 13.1 °F /  -10.5 °C 1020.9 in /  34567.7 hPa West 4.8 mph /  7.7 km/h 9.7 mph /  15.6 km/h 74 % 0.0 in /  0 mm 684.00 W/m2
12:54 17.7 °F /  -7.9 °C 13.0 °F /  -10.6 °C 1020.9 in /  34567.7 hPa West 4.8 mph /  7.7 km/h 12.9 mph /  20.8 km/h 74 % 0.0 in /  0 mm 742.00 W/m2
12:59 17.6 °F /  -8 °C 13.1 °F /  -10.5 °C 1020.9 in /  34567.7 hPa WNW 6.4 mph /  10.3 km/h 9.7 mph /  15.6 km/h 75 % 0.0 in /  0 mm 800.00 W/m2
13:04 17.7 °F /  -7.9 °C 13.2 °F /  -10.4 °C 1020.9 in /  34567.7 hPa WNW 6.4 mph /  10.3 km/h 12.9 mph /  20.8 km/h 75 % 0.0 in /  0 mm 830.00 W/m2
13:09 17.6 °F /  -8 °C 13.1 °F /  -10.5 °C 1020.8 in /  34564.3 hPa NW 6.4 mph /  10.3 km/h 11.3 mph /  18.2 km/h 75 % 0.0 in /  0 mm 838.00 W/m2
13:14 17.5 °F /  -8.1 °C 13.0 °F /  -10.6 °C 1020.8 in /  34564.3 hPa WNW 6.4 mph /  10.3 km/h 11.3 mph /  18.2 km/h 75 % 0.0 in /  0 mm 840.00 W/m2
13:19 17.3 °F /  -8.2 °C 12.8 °F /  -10.7 °C 1020.8 in /  34564.3 hPa West 6.4 mph /  10.3 km/h 14.5 mph /  23.3 km/h 75 % 0.0 in /  0 mm 846.00 W/m2
13:24 17.2 °F /  -8.2 °C 12.9 °F /  -10.6 °C 1020.8 in /  34564.3 hPa WNW 8.0 mph /  12.9 km/h 14.5 mph /  23.3 km/h 76 % 0.0 in /  0 mm 851.00 W/m2
13:29 17.3 °F /  -8.2 °C 13.2 °F /  -10.4 °C 1020.9 in /  34567.7 hPa NW 8.0 mph /  12.9 km/h 16.1 mph /  25.9 km/h 77 % 0.0 in /  0 mm 856.00 W/m2
13:34 17.1 °F /  -8.3 °C 12.8 °F /  -10.7 °C 1020.9 in /  34567.7 hPa West 8.0 mph /  12.9 km/h 14.5 mph /  23.3 km/h 76 % 0.0 in /  0 mm 860.00 W/m2
13:39 17.3 °F /  -8.2 °C 13.2 °F /  -10.4 °C 1020.8 in /  34564.3 hPa West 8.0 mph /  12.9 km/h 12.9 mph /  20.8 km/h 77 % 0.0 in /  0 mm 863.00 W/m2
13:44 17.2 °F /  -8.2 °C 12.9 °F /  -10.6 °C 1020.7 in /  34560.9 hPa West 8.0 mph /  12.9 km/h 14.5 mph /  23.3 km/h 76 % 0.0 in /  0 mm 867.00 W/m2
13:49 17.1 °F /  -8.3 °C 13.1 °F /  -10.5 °C 1020.8 in /  34564.3 hPa West 9.7 mph /  15.6 km/h 16.1 mph /  25.9 km/h 77 % 0.0 in /  0 mm 868.00 W/m2
13:54 16.9 °F /  -8.4 °C 12.7 °F /  -10.7 °C 1020.7 in /  34560.9 hPa WNW 11.3 mph /  18.2 km/h 16.1 mph /  25.9 km/h 76 % 0.0 in /  0 mm 872.00 W/m2
13:59 17.1 °F /  -8.3 °C 12.8 °F /  -10.7 °C 1020.7 in /  34560.9 hPa West 9.7 mph /  15.6 km/h 16.1 mph /  25.9 km/h 76 % 0.0 in /  0 mm 875.00 W/m2
14:04 17.2 °F /  -8.2 °C 13.1 °F /  -10.5 °C 1020.6 in /  34557.5 hPa NW 8.0 mph /  12.9 km/h 8.0 mph /  12.9 km/h 77 % 0.0 in /  0 mm 877.00 W/m2
14:09 17.3 °F /  -8.2 °C 13.0 °F /  -10.6 °C 1020.5 in /  34554.1 hPa West 6.4 mph /  10.3 km/h 12.9 mph /  20.8 km/h 76 % 0.0 in /  0 mm 879.00 W/m2
14:14 17.5 °F /  -8.1 °C 13.2 °F /  -10.4 °C 1020.5 in /  34554.1 hPa WNW 6.4 mph /  10.3 km/h 8.0 mph /  12.9 km/h 76 % 0.0 in /  0 mm 879.00 W/m2
14:19 17.9 °F /  -7.8 °C 13.2 °F /  -10.4 °C 1020.5 in /  34554.1 hPa West 6.4 mph /  10.3 km/h 11.3 mph /  18.2 km/h 74 % 0.0 in /  0 mm 882.00 W/m2
14:24 18.1 °F /  -7.7 °C 13.4 °F /  -10.3 °C 1020.5 in /  34554.1 hPa West 4.8 mph /  7.7 km/h 14.5 mph /  23.3 km/h 74 % 0.0 in /  0 mm 884.00 W/m2
14:29 17.3 °F /  -8.2 °C 12.6 °F /  -10.8 °C 1020.5 in /  34554.1 hPa West 8.0 mph /  12.9 km/h 17.7 mph /  28.5 km/h 74 % 0.0 in /  0 mm 877.00 W/m2
14:34 17.1 °F /  -8.3 °C 12.8 °F /  -10.7 °C 1020.5 in /  34554.1 hPa West 11.3 mph /  18.2 km/h 14.5 mph /  23.3 km/h 76 % 0.0 in /  0 mm 865.00 W/m2
14:39 17.2 °F /  -8.2 °C 12.9 °F /  -10.6 °C 1020.4 in /  34550.7 hPa West 11.3 mph /  18.2 km/h 17.7 mph /  28.5 km/h 76 % 0.0 in /  0 mm 860.00 W/m2
14:44 17.0 °F /  -8.3 °C 12.6 °F /  -10.8 °C 1020.5 in /  34554.1 hPa West 12.9 mph /  20.8 km/h 17.7 mph /  28.5 km/h 75 % 0.0 in /  0 mm 861.00 W/m2
14:49 16.8 °F /  -8.4 °C 12.7 °F /  -10.7 °C 1020.5 in /  34554.1 hPa West 14.5 mph /  23.3 km/h 19.3 mph /  31.1 km/h 77 % 0.0 in /  0 mm 870.00 W/m2
14:54 16.8 °F /  -8.4 °C 12.7 °F /  -10.7 °C 1020.4 in /  34550.7 hPa West 14.5 mph /  23.3 km/h 17.7 mph /  28.5 km/h 77 % 0.0 in /  0 mm 877.00 W/m2
14:59 16.9 °F /  -8.4 °C 12.7 °F /  -10.7 °C 1020.4 in /  34550.7 hPa West 12.9 mph /  20.8 km/h 17.7 mph /  28.5 km/h 76 % 0.0 in /  0 mm 879.00 W/m2
15:04 16.8 °F /  -8.4 °C 12.6 °F /  -10.8 °C 1020.4 in /  34550.7 hPa West 12.9 mph /  20.8 km/h 19.3 mph /  31.1 km/h 76 % 0.0 in /  0 mm 875.00 W/m2
15:09 16.9 °F /  -8.4 °C 12.4 °F /  -10.9 °C 1020.4 in /  34550.7 hPa West 14.5 mph /  23.3 km/h 17.7 mph /  28.5 km/h 75 % 0.0 in /  0 mm 874.00 W/m2
15:14 17.2 °F /  -8.2 °C 12.9 °F /  -10.6 °C 1020.5 in /  34554.1 hPa West 12.9 mph /  20.8 km/h 16.1 mph /  25.9 km/h 76 % 0.0 in /  0 mm 872.00 W/m2
15:19 17.6 °F /  -8 °C 13.1 °F /  -10.5 °C 1020.5 in /  34554.1 hPa West 11.3 mph /  18.2 km/h 17.7 mph /  28.5 km/h 75 % 0.0 in /  0 mm 870.00 W/m2
15:24 17.9 °F /  -7.8 °C 13.4 °F /  -10.3 °C 1020.5 in /  34554.1 hPa West 8.0 mph /  12.9 km/h 14.5 mph /  23.3 km/h 75 % 0.0 in /  0 mm 868.00 W/m2
15:29 18.2 °F /  -7.7 °C 13.7 °F /  -10.2 °C 1020.5 in /  34554.1 hPa West 6.4 mph /  10.3 km/h 12.9 mph /  20.8 km/h 75 % 0.0 in /  0 mm 865.00 W/m2
15:34 18.2 °F /  -7.7 °C 13.3 °F /  -10.4 °C 1020.5 in /  34554.1 hPa West 6.4 mph /  10.3 km/h 17.7 mph /  28.5 km/h 73 % 0.0 in /  0 mm 861.00 W/m2
15:39 17.4 °F /  -8.1 °C 12.9 °F /  -10.6 °C 1020.5 in /  34554.1 hPa West 9.7 mph /  15.6 km/h 16.1 mph /  25.9 km/h 75 % 0.0 in /  0 mm 858.00 W/m2
15:44 17.2 °F /  -8.2 °C 12.9 °F /  -10.6 °C 1020.4 in /  34550.7 hPa West 11.3 mph /  18.2 km/h 16.1 mph /  25.9 km/h 76 % 0.0 in /  0 mm 853.00 W/m2
15:49 16.9 °F /  -8.4 °C 12.7 °F /  -10.7 °C 1020.4 in /  34550.7 hPa West 11.3 mph /  18.2 km/h 16.1 mph /  25.9 km/h 76 % 0.0 in /  0 mm 846.00 W/m2
15:54 16.9 °F /  -8.4 °C 13.1 °F /  -10.5 °C 1020.4 in /  34550.7 hPa West 12.9 mph /  20.8 km/h 14.5 mph /  23.3 km/h 78 % 0.0 in /  0 mm 840.00 W/m2
15:59 16.9 °F /  -8.4 °C 13.1 °F /  -10.5 °C 1020.4 in /  34550.7 hPa West 11.3 mph /  18.2 km/h 14.5 mph /  23.3 km/h 78 % 0.0 in /  0 mm 837.00 W/m2
16:04 16.8 °F /  -8.4 °C 12.7 °F /  -10.7 °C 1020.3 in /  34547.4 hPa West 11.3 mph /  18.2 km/h 16.1 mph /  25.9 km/h 77 % 0.0 in /  0 mm 831.00 W/m2
16:09 17.1 °F /  -8.3 °C 13.1 °F /  -10.5 °C 1020.3 in /  34547.4 hPa West 11.3 mph /  18.2 km/h 14.5 mph /  23.3 km/h 77 % 0.0 in /  0 mm 826.00 W/m2
16:14 17.2 °F /  -8.2 °C 13.1 °F /  -10.5 °C 1020.3 in /  34547.4 hPa West 11.3 mph /  18.2 km/h 16.1 mph /  25.9 km/h 77 % 0.0 in /  0 mm 819.00 W/m2
16:19 17.3 °F /  -8.2 °C 13.2 °F /  -10.4 °C 1020.4 in /  34550.7 hPa West 11.3 mph /  18.2 km/h 16.1 mph /  25.9 km/h 77 % 0.0 in /  0 mm 812.00 W/m2
16:24 17.4 °F /  -8.1 °C 13.3 °F /  -10.4 °C 1020.4 in /  34550.7 hPa West 11.3 mph /  18.2 km/h 17.7 mph /  28.5 km/h 77 % 0.0 in /  0 mm 805.00 W/m2
16:29 17.4 °F /  -8.1 °C 13.3 °F /  -10.4 °C 1020.4 in /  34550.7 hPa West 9.7 mph /  15.6 km/h 16.1 mph /  25.9 km/h 77 % 0.0 in /  0 mm 798.00 W/m2
16:34 17.5 °F /  -8.1 °C 13.6 °F /  -10.2 °C 1020.3 in /  34547.4 hPa West 9.7 mph /  15.6 km/h 17.7 mph /  28.5 km/h 78 % 0.0 in /  0 mm 791.00 W/m2
16:39 17.3 °F /  -8.2 °C 13.6 °F /  -10.2 °C 1020.3 in /  34547.4 hPa West 11.3 mph /  18.2 km/h 19.3 mph /  31.1 km/h 79 % 0.0 in /  0 mm 784.00 W/m2
16:44 17.2 °F /  -8.2 °C 13.5 °F /  -10.3 °C 1020.2 in /  34544 hPa West 12.9 mph /  20.8 km/h 19.3 mph /  31.1 km/h 79 % 0.0 in /  0 mm 775.00 W/m2
16:49 17.3 °F /  -8.2 °C 13.8 °F /  -10.1 °C 1020.2 in /  34544 hPa WNW 11.3 mph /  18.2 km/h 14.5 mph /  23.3 km/h 80 % 0.0 in /  0 mm 766.00 W/m2
16:54 17.7 °F /  -7.9 °C 14.4 °F /  -9.8 °C 1020.3 in /  34547.4 hPa WNW 8.0 mph /  12.9 km/h 12.9 mph /  20.8 km/h 81 % 0.0 in /  0 mm 759.00 W/m2
16:59 17.9 °F /  -7.8 °C 14.4 °F /  -9.8 °C 1020.3 in /  34547.4 hPa West 6.4 mph /  10.3 km/h 8.0 mph /  12.9 km/h 80 % 0.0 in /  0 mm 751.00 W/m2
17:04 18.1 °F /  -7.7 °C 14.6 °F /  -9.7 °C 1020.2 in /  34544 hPa WNW 4.8 mph /  7.7 km/h 12.9 mph /  20.8 km/h 80 % 0.0 in /  0 mm 742.00 W/m2
17:09 17.5 °F /  -8.1 °C 14.0 °F /  -10 °C 1020.1 in /  34540.6 hPa West 6.4 mph /  10.3 km/h 17.7 mph /  28.5 km/h 80 % 0.0 in /  0 mm 731.00 W/m2
17:14 17.4 °F /  -8.1 °C 14.3 °F /  -9.8 °C 1020.1 in /  34540.6 hPa West 9.7 mph /  15.6 km/h 12.9 mph /  20.8 km/h 82 % 0.0 in /  0 mm 724.00 W/m2
17:19 17.6 °F /  -8 °C 14.5 °F /  -9.7 °C 1020.1 in /  34540.6 hPa WNW 9.7 mph /  15.6 km/h 9.7 mph /  15.6 km/h 82 % 0.0 in /  0 mm 714.00 W/m2
17:24 17.9 °F /  -7.8 °C 14.8 °F /  -9.6 °C 1020.1 in /  34540.6 hPa West 4.8 mph /  7.7 km/h 9.7 mph /  15.6 km/h 82 % 0.0 in /  0 mm 705.00 W/m2
17:29 18.3 °F /  -7.6 °C 15.0 °F /  -9.4 °C 1020.0 in /  34537.2 hPa WNW 3.2 mph /  5.1 km/h 8.0 mph /  12.9 km/h 81 % 0.0 in /  0 mm 696.00 W/m2
17:34 17.9 °F /  -7.8 °C 14.2 °F /  -9.9 °C 1020.1 in /  34540.6 hPa West 4.8 mph /  7.7 km/h 16.1 mph /  25.9 km/h 79 % 0.0 in /  0 mm 684.00 W/m2
17:39 17.8 °F /  -7.9 °C 14.5 °F /  -9.7 °C 1020.1 in /  34540.6 hPa West 8.0 mph /  12.9 km/h 16.1 mph /  25.9 km/h 81 % 0.0 in /  0 mm 671.00 W/m2
17:44 17.7 °F /  -7.9 °C 14.4 °F /  -9.8 °C 1020.1 in /  34540.6 hPa WSW 8.0 mph /  12.9 km/h 14.5 mph /  23.3 km/h 81 % 0.0 in /  0 mm 659.00 W/m2
17:49 17.5 °F /  -8.1 °C 14.4 °F /  -9.8 °C 1020.1 in /  34540.6 hPa West 8.0 mph /  12.9 km/h 16.1 mph /  25.9 km/h 82 % 0.0 in /  0 mm 650.00 W/m2
17:54 17.4 °F /  -8.1 °C 14.3 °F /  -9.8 °C 1020.2 in /  34544 hPa West 9.7 mph /  15.6 km/h 14.5 mph /  23.3 km/h 82 % 0.0 in /  0 mm 638.00 W/m2
17:59 17.5 °F /  -8.1 °C 14.6 °F /  -9.7 °C 1020.1 in /  34540.6 hPa West 9.7 mph /  15.6 km/h 11.3 mph /  18.2 km/h 83 % 0.0 in /  0 mm 626.00 W/m2
18:04 17.8 °F /  -7.9 °C 14.9 °F /  -9.5 °C 1020.1 in /  34540.6 hPa West 8.0 mph /  12.9 km/h 9.7 mph /  15.6 km/h 83 % 0.0 in /  0 mm 615.00 W/m2
18:09 18.1 °F /  -7.7 °C 15.0 °F /  -9.4 °C 1020.0 in /  34537.2 hPa West 4.8 mph /  7.7 km/h 9.7 mph /  15.6 km/h 82 % 0.0 in /  0 mm 603.00 W/m2
18:14 18.3 °F /  -7.6 °C 14.8 °F /  -9.6 °C 1020.0 in /  34537.2 hPa West 4.8 mph /  7.7 km/h 11.3 mph /  18.2 km/h 80 % 0.0 in /  0 mm 591.00 W/m2
18:19 18.2 °F /  -7.7 °C 14.7 °F /  -9.6 °C 1020.0 in /  34537.2 hPa West 4.8 mph /  7.7 km/h 12.9 mph /  20.8 km/h 80 % 0.0 in /  0 mm 580.00 W/m2
18:24 17.9 °F /  -7.8 °C 14.6 °F /  -9.7 °C 1020.0 in /  34537.2 hPa West 8.0 mph /  12.9 km/h 11.3 mph /  18.2 km/h 81 % 0.0 in /  0 mm 568.00 W/m2
18:29 18.0 °F /  -7.8 °C 14.9 °F /  -9.5 °C 1020.0 in /  34537.2 hPa West 8.0 mph /  12.9 km/h 11.3 mph /  18.2 km/h 82 % 0.0 in /  0 mm 554.00 W/m2
18:34 17.9 °F /  -7.8 °C 14.8 °F /  -9.6 °C 1020.1 in /  34540.6 hPa West 8.0 mph /  12.9 km/h 12.9 mph /  20.8 km/h 82 % 0.0 in /  0 mm 545.00 W/m2
18:39 18.0 °F /  -7.8 °C 15.1 °F /  -9.4 °C 1020.1 in /  34540.6 hPa West 8.0 mph /  12.9 km/h 14.5 mph /  23.3 km/h 83 % 0.0 in /  0 mm 577.00 W/m2
18:44 17.6 °F /  -8 °C 14.7 °F /  -9.6 °C 1020.1 in /  34540.6 hPa West 8.0 mph /  12.9 km/h 16.1 mph /  25.9 km/h 83 % 0.0 in /  0 mm 454.00 W/m2
18:49 17.3 °F /  -8.2 °C 14.6 °F /  -9.7 °C 1020.1 in /  34540.6 hPa West 9.7 mph /  15.6 km/h 14.5 mph /  23.3 km/h 84 % 0.0 in /  0 mm 510.00 W/m2
18:54 17.1 °F /  -8.3 °C 14.6 °F /  -9.7 °C 1020.0 in /  34537.2 hPa West 9.7 mph /  15.6 km/h 16.1 mph /  25.9 km/h 85 % 0.0 in /  0 mm 466.00 W/m2
18:59 17.0 °F /  -8.3 °C 14.7 °F /  -9.6 °C 1019.9 in /  34533.8 hPa West 12.9 mph /  20.8 km/h 12.9 mph /  20.8 km/h 86 % 0.0 in /  0 mm 469.00 W/m2
19:04 17.3 °F /  -8.2 °C 15.1 °F /  -9.4 °C 1019.9 in /  34533.8 hPa West 9.7 mph /  15.6 km/h 4.8 mph /  7.7 km/h 87 % 0.0 in /  0 mm 461.00 W/m2
19:09 17.8 °F /  -7.9 °C 15.4 °F /  -9.2 °C 1019.9 in /  34533.8 hPa West 4.8 mph /  7.7 km/h 9.7 mph /  15.6 km/h 86 % 0.0 in /  0 mm 448.00 W/m2
19:14 18.1 °F /  -7.7 °C 15.6 °F /  -9.1 °C 1019.9 in /  34533.8 hPa WNW 3.2 mph /  5.1 km/h 6.4 mph /  10.3 km/h 85 % 0.0 in /  0 mm 436.00 W/m2
19:19 18.1 °F /  -7.7 °C 15.3 °F /  -9.3 °C 1019.8 in /  34530.4 hPa West 3.2 mph /  5.1 km/h 9.7 mph /  15.6 km/h 84 % 0.0 in /  0 mm 422.00 W/m2
19:24 18.1 °F /  -7.7 °C 15.3 °F /  -9.3 °C 1019.8 in /  34530.4 hPa West 4.8 mph /  7.7 km/h 9.7 mph /  15.6 km/h 84 % 0.0 in /  0 mm 408.00 W/m2
19:29 18.1 °F /  -7.7 °C 15.3 °F /  -9.3 °C 1019.8 in /  34530.4 hPa WNW 4.8 mph /  7.7 km/h 11.3 mph /  18.2 km/h 84 % 0.0 in /  0 mm 394.00 W/m2
19:34 17.8 °F /  -7.9 °C 14.9 °F /  -9.5 °C 1019.8 in /  34530.4 hPa West 6.4 mph /  10.3 km/h 12.9 mph /  20.8 km/h 83 % 0.0 in /  0 mm 394.00 W/m2
19:39 17.4 °F /  -8.1 °C 14.7 °F /  -9.6 °C 1019.7 in /  34527 hPa West 8.0 mph /  12.9 km/h 12.9 mph /  20.8 km/h 84 % 0.0 in /  0 mm 369.00 W/m2
19:44 17.3 °F /  -8.2 °C 14.9 °F /  -9.5 °C 1019.8 in /  34530.4 hPa West 9.7 mph /  15.6 km/h 12.9 mph /  20.8 km/h 86 % 0.0 in /  0 mm 346.00 W/m2
19:49 17.2 °F /  -8.2 °C 14.8 °F /  -9.6 °C 1019.9 in /  34533.8 hPa West 9.7 mph /  15.6 km/h 11.3 mph /  18.2 km/h 86 % 0.0 in /  0 mm 380.00 W/m2
19:54 17.2 °F /  -8.2 °C 14.8 °F /  -9.6 °C 1019.8 in /  34530.4 hPa WNW 6.4 mph /  10.3 km/h 12.9 mph /  20.8 km/h 86 % 0.0 in /  0 mm 246.00 W/m2
19:59 17.2 °F /  -8.2 °C 14.8 °F /  -9.6 °C 1019.8 in /  34530.4 hPa WNW 6.4 mph /  10.3 km/h 9.7 mph /  15.6 km/h 86 % 0.0 in /  0 mm 190.00 W/m2
20:04 17.2 °F /  -8.2 °C 14.8 °F /  -9.6 °C 1019.8 in /  34530.4 hPa NNW 4.8 mph /  7.7 km/h 6.4 mph /  10.3 km/h 86 % 0.0 in /  0 mm 149.00 W/m2
20:09 17.2 °F /  -8.2 °C 14.8 °F /  -9.6 °C 1019.9 in /  34533.8 hPa West 4.8 mph /  7.7 km/h 9.7 mph /  15.6 km/h 86 % 0.0 in /  0 mm 132.00 W/m2
20:14 17.2 °F /  -8.2 °C 15.0 °F /  -9.4 °C 1019.9 in /  34533.8 hPa West 3.2 mph /  5.1 km/h 9.7 mph /  15.6 km/h 87 % 0.0 in /  0 mm 127.00 W/m2
20:19 17.1 °F /  -8.3 °C 14.9 °F /  -9.5 °C 1019.8 in /  34530.4 hPa NW 3.2 mph /  5.1 km/h 8.0 mph /  12.9 km/h 87 % 0.0 in /  0 mm 132.00 W/m2
20:24 16.8 °F /  -8.4 °C 14.6 °F /  -9.7 °C 1019.8 in /  34530.4 hPa West 4.8 mph /  7.7 km/h 11.3 mph /  18.2 km/h 87 % 0.0 in /  0 mm 121.00 W/m2
20:29 16.6 °F /  -8.6 °C 14.6 °F /  -9.7 °C 1019.8 in /  34530.4 hPa West 6.4 mph /  10.3 km/h 8.0 mph /  12.9 km/h 88 % 0.0 in /  0 mm 109.00 W/m2
20:34 16.7 °F /  -8.5 °C 14.7 °F /  -9.6 °C 1019.8 in /  34530.4 hPa West 4.8 mph /  7.7 km/h 3.2 mph /  5.1 km/h 88 % 0.0 in /  0 mm 109.00 W/m2
20:39 16.7 °F /  -8.5 °C 14.7 °F /  -9.6 °C 1019.8 in /  34530.4 hPa West 3.2 mph /  5.1 km/h 9.7 mph /  15.6 km/h 88 % 0.0 in /  0 mm 107.00 W/m2
20:44 16.4 °F /  -8.7 °C 14.4 °F /  -9.8 °C 1019.8 in /  34530.4 hPa West 4.8 mph /  7.7 km/h 9.7 mph /  15.6 km/h 88 % 0.0 in /  0 mm 83.00 W/m2
20:49 16.3 °F /  -8.7 °C 14.5 °F /  -9.7 °C 1019.9 in /  34533.8 hPa West 6.4 mph /  10.3 km/h 11.3 mph /  18.2 km/h 89 % 0.0 in /  0 mm 54.00 W/m2
20:54 16.3 °F /  -8.7 °C 14.5 °F /  -9.7 °C 1020.0 in /  34537.2 hPa West 6.4 mph /  10.3 km/h 8.0 mph /  12.9 km/h 89 % 0.0 in /  0 mm 56.00 W/m2
20:59 16.2 °F /  -8.8 °C 14.4 °F /  -9.8 °C 1020.0 in /  34537.2 hPa West 6.4 mph /  10.3 km/h 12.9 mph /  20.8 km/h 89 % 0.0 in /  0 mm 46.00 W/m2
21:04 16.1 °F /  -8.8 °C 14.3 °F /  -9.8 °C 1020.0 in /  34537.2 hPa West 8.0 mph /  12.9 km/h 11.3 mph /  18.2 km/h 89 % 0.0 in /  0 mm 63.00 W/m2
21:09 16.1 °F /  -8.8 °C 14.4 °F /  -9.8 °C 1020.0 in /  34537.2 hPa West 8.0 mph /  12.9 km/h 8.0 mph /  12.9 km/h 90 % 0.0 in /  0 mm 47.00 W/m2
21:14 16.1 °F /  -8.8 °C 14.4 °F /  -9.8 °C 1020.1 in /  34540.6 hPa West 4.8 mph /  7.7 km/h 9.7 mph /  15.6 km/h 90 % 0.0 in /  0 mm 35.00 W/m2
21:19 16.2 °F /  -8.8 °C 14.6 °F /  -9.7 °C 1020.1 in /  34540.6 hPa NW 3.2 mph /  5.1 km/h 6.4 mph /  10.3 km/h 90 % 0.0 in /  0 mm 28.00 W/m2
21:24 16.1 °F /  -8.8 °C 14.4 °F /  -9.8 °C 1020.1 in /  34540.6 hPa West 3.2 mph /  5.1 km/h 9.7 mph /  15.6 km/h 90 % 0.0 in /  0 mm 19.00 W/m2
21:29 16.0 °F /  -8.9 °C 14.6 °F /  -9.7 °C 1020.1 in /  34540.6 hPa West 4.8 mph /  7.7 km/h 9.7 mph /  15.6 km/h 91 % 0.0 in /  0 mm 19.00 W/m2
21:34 15.9 °F /  -8.9 °C 14.4 °F /  -9.8 °C 1020.0 in /  34537.2 hPa West 6.4 mph /  10.3 km/h 8.0 mph /  12.9 km/h 91 % 0.0 in /  0 mm 14.00 W/m2
21:39 15.9 °F /  -8.9 °C 14.4 °F /  -9.8 °C 1020.1 in /  34540.6 hPa West 4.8 mph /  7.7 km/h 6.4 mph /  10.3 km/h 91 % 0.0 in /  0 mm 12.00 W/m2
21:44 16.0 °F /  -8.9 °C 14.6 °F /  -9.7 °C 1020.1 in /  34540.6 hPa West 3.2 mph /  5.1 km/h 6.4 mph /  10.3 km/h 91 % 0.0 in /  0 mm 18.00 W/m2
21:49 16.1 °F /  -8.8 °C 14.6 °F /  -9.7 °C 1020.0 in /  34537.2 hPa West 1.6 mph /  2.6 km/h 4.8 mph /  7.7 km/h 91 % 0.0 in /  0 mm 16.00 W/m2
21:54 16.1 °F /  -8.8 °C 14.6 °F /  -9.7 °C 1020.0 in /  34537.2 hPa West 1.6 mph /  2.6 km/h 4.8 mph /  7.7 km/h 91 % 0.0 in /  0 mm 14.00 W/m2
21:59 16.1 °F /  -8.8 °C 14.8 °F /  -9.6 °C 1019.9 in /  34533.8 hPa West 1.6 mph /  2.6 km/h 3.2 mph /  5.1 km/h 92 % 0.0 in /  0 mm 7.00 W/m2
22:04 16.0 °F /  -8.9 °C 14.7 °F /  -9.6 °C 1020.0 in /  34537.2 hPa West 1.6 mph /  2.6 km/h 4.8 mph /  7.7 km/h 92 % 0.0 in /  0 mm 5.00 W/m2
22:09 16.0 °F /  -8.9 °C 14.7 °F /  -9.6 °C 1020.0 in /  34537.2 hPa West 1.6 mph /  2.6 km/h 3.2 mph /  5.1 km/h 92 % 0.0 in /  0 mm 5.00 W/m2
22:14 16.0 °F /  -8.9 °C 14.7 °F /  -9.6 °C 1019.9 in /  34533.8 hPa Calm   1.6 mph /  2.6 km/h 92 % 0.0 in /  0 mm 0.00 W/m2
22:19 16.0 °F /  -8.9 °C 14.7 °F /  -9.6 °C 1019.9 in /  34533.8 hPa Calm   3.2 mph /  5.1 km/h 92 % 0.0 in /  0 mm 0.00 W/m2
22:24 16.0 °F /  -8.9 °C 14.7 °F /  -9.6 °C 1019.9 in /  34533.8 hPa Calm   1.6 mph /  2.6 km/h 92 % 0.0 in /  0 mm 0.00 W/m2
22:29 16.0 °F /  -8.9 °C 14.7 °F /  -9.6 °C 1020.0 in /  34537.2 hPa Calm   4.8 mph /  7.7 km/h 92 % 0.0 in /  0 mm 0.00 W/m2
22:34 16.0 °F /  -8.9 °C 14.7 °F /  -9.6 °C 1020.0 in /  34537.2 hPa Calm   3.2 mph /  5.1 km/h 92 % 0.0 in /  0 mm 0.00 W/m2
22:39 15.9 °F /  -8.9 °C 14.8 °F /  -9.6 °C 1020.0 in /  34537.2 hPa Calm   4.8 mph /  7.7 km/h 93 % 0.0 in /  0 mm 0.00 W/m2
22:44 15.9 °F /  -8.9 °C 14.8 °F /  -9.6 °C 1020.1 in /  34540.6 hPa West 1.6 mph /  2.6 km/h 3.2 mph /  5.1 km/h 93 % 0.0 in /  0 mm 0.00 W/m2
22:49 15.9 °F /  -8.9 °C 14.8 °F /  -9.6 °C 1020.1 in /  34540.6 hPa West 1.6 mph /  2.6 km/h 1.6 mph /  2.6 km/h 93 % 0.0 in /  0 mm 0.00 W/m2
22:54 15.9 °F /  -8.9 °C 14.8 °F /  -9.6 °C 1020.1 in /  34540.6 hPa Calm   3.2 mph /  5.1 km/h 93 % 0.0 in /  0 mm 0.00 W/m2
22:59 15.9 °F /  -8.9 °C 14.8 °F /  -9.6 °C 1020.2 in /  34544 hPa Calm   1.6 mph /  2.6 km/h 93 % 0.0 in /  0 mm 0.00 W/m2
23:04 15.9 °F /  -8.9 °C 14.8 °F /  -9.6 °C 1020.2 in /  34544 hPa Calm   3.2 mph /  5.1 km/h 93 % 0.0 in /  0 mm 0.00 W/m2
23:09 15.9 °F /  -8.9 °C 14.9 °F /  -9.5 °C 1020.2 in /  34544 hPa West 1.6 mph /  2.6 km/h 4.8 mph /  7.7 km/h 94 % 0.0 in /  0 mm 0.00 W/m2
23:14 15.9 °F /  -8.9 °C 14.9 °F /  -9.5 °C 1020.3 in /  34547.4 hPa West 1.6 mph /  2.6 km/h 3.2 mph /  5.1 km/h 94 % 0.0 in /  0 mm 0.00 W/m2
23:19 15.9 °F /  -8.9 °C 14.9 °F /  -9.5 °C 1020.2 in /  34544 hPa West 1.6 mph /  2.6 km/h 3.2 mph /  5.1 km/h 94 % 0.0 in /  0 mm 0.00 W/m2
23:24 15.9 °F /  -8.9 °C 14.9 °F /  -9.5 °C 1020.3 in /  34547.4 hPa West 1.6 mph /  2.6 km/h 6.4 mph /  10.3 km/h 94 % 0.0 in /  0 mm 0.00 W/m2
23:29 15.9 °F /  -8.9 °C 14.9 °F /  -9.5 °C 1020.3 in /  34547.4 hPa Calm   1.6 mph /  2.6 km/h 94 % 0.0 in /  0 mm 0.00 W/m2
23:34 15.9 °F /  -8.9 °C 14.9 °F /  -9.5 °C 1020.3 in /  34547.4 hPa Calm   1.6 mph /  2.6 km/h 94 % 0.0 in /  0 mm 0.00 W/m2
23:39 15.9 °F /  -8.9 °C 14.9 °F /  -9.5 °C 1020.3 in /  34547.4 hPa Calm   3.2 mph /  5.1 km/h 94 % 0.0 in /  0 mm 0.00 W/m2
23:44 15.9 °F /  -8.9 °C 14.9 °F /  -9.5 °C 1020.3 in /  34547.4 hPa Calm   3.2 mph /  5.1 km/h 94 % 0.0 in /  0 mm 0.00 W/m2
23:49 15.9 °F /  -8.9 °C 14.9 °F /  -9.5 °C 1020.3 in /  34547.4 hPa Calm   1.6 mph /  2.6 km/h 94 % 0.0 in /  0 mm 0.00 W/m2
23:54 15.9 °F /  -8.9 °C 14.9 °F /  -9.5 °C 1020.3 in /  34547.4 hPa Calm   3.2 mph /  5.1 km/h 94 % 0.0 in /  0 mm 0.00 W/m2
23:59 15.9 °F /  -8.9 °C 14.9 °F /  -9.5 °C 1020.3 in /  34547.4 hPa Calm   1.6 mph /  2.6 km/h 94 % 0.0 in /  0 mm 0.00 W/m2
Meteocoruña
Agradecimientos a Weather Underground - 3 mb